CCM26A LFKJ-LFMN
Flight info
| Callsign | CCM26A |
|---|---|
| Flight time | 0h 28m |
| Altitude | 20000 |
| Route | LONSU |
| Aircraft | A320/M-SDE3FGHIRWY/LB1 |
Departure
| Time | 2026-05-04 11:50 |
|---|---|
| Airport | Ajaccio Napoléon Bonaparte airport (LFKJ) |
Arrival
| Time | 2026-05-04 12:18 |
|---|---|
| Airport | Nice-Côte d'Azur Airport (LFMN) |
| Time | Latitude | Longitude | Altitude | Speed | Heading |
|---|---|---|---|---|---|
| 2026-05-04 11:38 | 41.91970 | 8.79570 | 48 ft | 0 kts | 345° |
| 2026-05-04 11:42 | 41.91959 | 8.79575 | 21 ft | 4 kts | 340° |
| 2026-05-04 11:43 | 41.91934 | 8.79590 | 22 ft | 4 kts | 327° |
| 2026-05-04 11:43 | 41.91912 | 8.79609 | 22 ft | 4 kts | 349° |
| 2026-05-04 11:43 | 41.91902 | 8.79609 | 22 ft | 0 kts | 25° |
| 2026-05-04 11:45 | 41.91911 | 8.79615 | 22 ft | 7 kts | 25° |
| 2026-05-04 11:45 | 41.91970 | 8.79651 | 23 ft | 11 kts | 25° |
| 2026-05-04 11:45 | 41.92063 | 8.79708 | 22 ft | 15 kts | 25° |
| 2026-05-04 11:45 | 41.92155 | 8.79766 | 21 ft | 16 kts | 25° |
| 2026-05-04 11:46 | 41.92248 | 8.79824 | 22 ft | 14 kts | 25° |
| 2026-05-04 11:46 | 41.92332 | 8.79876 | 22 ft | 13 kts | 25° |
| 2026-05-04 11:46 | 41.92409 | 8.79923 | 22 ft | 12 kts | 25° |
| 2026-05-04 11:46 | 41.92518 | 8.79992 | 23 ft | 23 kts | 24° |
| 2026-05-04 11:47 | 41.92656 | 8.80075 | 21 ft | 21 kts | 25° |
| 2026-05-04 11:47 | 41.92778 | 8.80165 | 21 ft | 19 kts | 37° |
| 2026-05-04 11:47 | 41.92869 | 8.80281 | 21 ft | 17 kts | 44° |
| 2026-05-04 11:47 | 41.92947 | 8.80390 | 21 ft | 15 kts | 56° |
| 2026-05-04 11:48 | 41.92952 | 8.80510 | 25 ft | 12 kts | 109° |
| 2026-05-04 11:48 | 41.93008 | 8.80629 | 27 ft | 18 kts | 23° |
| 2026-05-04 11:48 | 41.93117 | 8.80651 | 29 ft | 14 kts | 356° |
| 2026-05-04 11:48 | 41.93150 | 8.80687 | 25 ft | 5 kts | 108° |
| 2026-05-04 11:49 | 41.93125 | 8.80699 | 27 ft | 5 kts | 186° |
| 2026-05-04 11:49 | 41.93048 | 8.80653 | 27 ft | 34 kts | 205° |
| 2026-05-04 11:49 | 41.92604 | 8.80377 | 24 ft | 103 kts | 205° |
| 2026-05-04 11:49 | 41.91789 | 8.79870 | 95 ft | 146 kts | 205° |
| 2026-05-04 11:50 | 41.90879 | 8.79294 | 717 ft | 144 kts | 205° |
| 2026-05-04 11:50 | 41.89969 | 8.78704 | 1294 ft | 147 kts | 207° |
| 2026-05-04 11:50 | 41.89106 | 8.77982 | 1897 ft | 145 kts | 217° |
| 2026-05-04 11:50 | 41.88272 | 8.77202 | 2426 ft | 147 kts | 215° |
| 2026-05-04 11:51 | 41.87434 | 8.76406 | 2944 ft | 149 kts | 215° |
| 2026-05-04 11:51 | 41.86575 | 8.75599 | 3403 ft | 151 kts | 214° |
| 2026-05-04 11:51 | 41.85678 | 8.74735 | 3657 ft | 170 kts | 217° |
| 2026-05-04 11:51 | 41.85022 | 8.73267 | 3825 ft | 203 kts | 261° |
| 2026-05-04 11:52 | 41.85329 | 8.71352 | 4078 ft | 231 kts | 303° |
| 2026-05-04 11:52 | 41.85873 | 8.70483 | 4185 ft | 247 kts | 317° |
| 2026-05-04 11:53 | 41.87361 | 8.69136 | 4603 ft | 270 kts | 330° |
| 2026-05-04 11:53 | 41.89075 | 8.67987 | 5306 ft | 280 kts | 334° |
| 2026-05-04 11:53 | 41.90886 | 8.66912 | 6207 ft | 282 kts | 336° |
| 2026-05-04 11:53 | 41.92680 | 8.65905 | 7075 ft | 284 kts | 336° |
| 2026-05-04 11:55 | 42.06660 | 8.58269 | 11073 ft | 364 kts | 335° |
| 2026-05-04 11:55 | 42.09023 | 8.56970 | 11687 ft | 370 kts | 335° |
| 2026-05-04 11:56 | 42.11421 | 8.55655 | 12343 ft | 374 kts | 335° |
| 2026-05-04 11:56 | 42.13847 | 8.54328 | 13029 ft | 378 kts | 335° |
| 2026-05-04 11:56 | 42.16297 | 8.52986 | 13713 ft | 382 kts | 334° |
| 2026-05-04 11:56 | 42.18766 | 8.51629 | 14324 ft | 385 kts | 334° |
| 2026-05-04 11:57 | 42.21256 | 8.50251 | 14912 ft | 388 kts | 334° |
| 2026-05-04 11:57 | 42.23733 | 8.48878 | 15490 ft | 392 kts | 334° |
| 2026-05-04 11:57 | 42.26300 | 8.47458 | 16084 ft | 396 kts | 334° |
| 2026-05-04 11:57 | 42.28862 | 8.46045 | 16668 ft | 399 kts | 334° |
| 2026-05-04 11:58 | 42.31407 | 8.44636 | 17249 ft | 402 kts | 334° |
| 2026-05-04 11:58 | 42.34007 | 8.43194 | 17835 ft | 406 kts | 334° |
| 2026-05-04 11:58 | 42.36633 | 8.41740 | 18404 ft | 409 kts | 334° |
| 2026-05-04 11:58 | 42.39275 | 8.40279 | 18919 ft | 412 kts | 334° |
| 2026-05-04 11:59 | 42.41936 | 8.38806 | 19450 ft | 414 kts | 334° |
| 2026-05-04 11:59 | 42.44607 | 8.37320 | 19892 ft | 416 kts | 334° |
| 2026-05-04 11:59 | 42.47282 | 8.35826 | 20020 ft | 416 kts | 334° |
| 2026-05-04 11:59 | 42.50000 | 8.34303 | 20078 ft | 430 kts | 334° |
| 2026-05-04 12:00 | 42.52814 | 8.32721 | 20070 ft | 444 kts | 334° |
| 2026-05-04 12:00 | 42.55681 | 8.31115 | 20071 ft | 448 kts | 335° |
| 2026-05-04 12:00 | 42.58571 | 8.29508 | 20070 ft | 449 kts | 335° |
| 2026-05-04 12:00 | 42.61467 | 8.27900 | 20071 ft | 449 kts | 335° |
| 2026-05-04 12:01 | 42.64359 | 8.26287 | 20069 ft | 449 kts | 335° |
| 2026-05-04 12:01 | 42.67250 | 8.24667 | 20067 ft | 449 kts | 335° |
| 2026-05-04 12:02 | 42.81058 | 8.08701 | 19511 ft | 428 kts | 311° |
| 2026-05-04 12:03 | 42.83127 | 8.05798 | 19275 ft | 427 kts | 311° |
| 2026-05-04 12:03 | 42.85182 | 8.02919 | 18753 ft | 421 kts | 311° |
| 2026-05-04 12:03 | 42.87221 | 8.00068 | 18036 ft | 420 kts | 311° |
| 2026-05-04 12:03 | 42.89250 | 7.97224 | 17406 ft | 416 kts | 311° |
| 2026-05-04 12:04 | 42.91258 | 7.94406 | 16825 ft | 412 kts | 311° |
| 2026-05-04 12:04 | 42.93238 | 7.91618 | 16271 ft | 407 kts | 311° |
| 2026-05-04 12:04 | 42.95200 | 7.88854 | 15742 ft | 403 kts | 311° |
| 2026-05-04 12:04 | 42.97143 | 7.86119 | 15214 ft | 400 kts | 311° |
| 2026-05-04 12:05 | 42.99064 | 7.83414 | 14688 ft | 396 kts | 311° |
| 2026-05-04 12:05 | 43.00969 | 7.80726 | 14165 ft | 392 kts | 311° |
| 2026-05-04 12:05 | 43.02859 | 7.78053 | 13587 ft | 389 kts | 311° |
| 2026-05-04 12:05 | 43.04731 | 7.75409 | 13017 ft | 385 kts | 311° |
| 2026-05-04 12:06 | 43.06586 | 7.72789 | 12437 ft | 381 kts | 311° |
| 2026-05-04 12:06 | 43.08420 | 7.70192 | 11847 ft | 378 kts | 311° |
| 2026-05-04 12:06 | 43.10237 | 7.67612 | 11239 ft | 376 kts | 311° |
| 2026-05-04 12:06 | 43.12021 | 7.65077 | 11033 ft | 362 kts | 311° |
| 2026-05-04 12:07 | 43.13734 | 7.62650 | 10905 ft | 347 kts | 311° |
| 2026-05-04 12:07 | 43.15374 | 7.60325 | 10782 ft | 333 kts | 311° |
| 2026-05-04 12:07 | 43.16951 | 7.58088 | 10669 ft | 320 kts | 311° |
| 2026-05-04 12:07 | 43.18469 | 7.55931 | 10548 ft | 309 kts | 311° |
| 2026-05-04 12:08 | 43.19940 | 7.53833 | 10331 ft | 302 kts | 310° |
| 2026-05-04 12:08 | 43.21387 | 7.51773 | 10261 ft | 300 kts | 311° |
| 2026-05-04 12:08 | 43.22843 | 7.49722 | 10154 ft | 300 kts | 311° |
| 2026-05-04 12:08 | 43.24298 | 7.47679 | 10025 ft | 299 kts | 311° |
| 2026-05-04 12:09 | 43.25758 | 7.45628 | 9561 ft | 304 kts | 312° |
| 2026-05-04 12:09 | 43.27229 | 7.43576 | 9317 ft | 297 kts | 312° |
| 2026-05-04 12:09 | 43.28180 | 7.42256 | 9226 ft | 290 kts | 312° |
| 2026-05-04 12:09 | 43.29595 | 7.40299 | 9091 ft | 280 kts | 311° |
| 2026-05-04 12:10 | 43.30928 | 7.38469 | 8933 ft | 270 kts | 312° |
| 2026-05-04 12:10 | 43.32236 | 7.36669 | 8731 ft | 263 kts | 312° |
| 2026-05-04 12:10 | 43.33520 | 7.34896 | 8402 ft | 261 kts | 312° |
| 2026-05-04 12:10 | 43.34791 | 7.33112 | 8025 ft | 261 kts | 311° |
| 2026-05-04 12:11 | 43.36039 | 7.31297 | 7643 ft | 261 kts | 311° |
| 2026-05-04 12:11 | 43.37278 | 7.29469 | 7268 ft | 261 kts | 311° |
| 2026-05-04 12:11 | 43.38509 | 7.27644 | 6908 ft | 261 kts | 311° |
| 2026-05-04 12:11 | 43.39741 | 7.25816 | 6639 ft | 260 kts | 311° |
| 2026-05-04 12:12 | 43.40968 | 7.23999 | 6390 ft | 260 kts | 312° |
| 2026-05-04 12:12 | 43.42197 | 7.22181 | 6173 ft | 259 kts | 312° |
| 2026-05-04 12:12 | 43.43403 | 7.20409 | 6038 ft | 248 kts | 313° |
| 2026-05-04 12:12 | 43.44562 | 7.18733 | 5890 ft | 235 kts | 314° |
| 2026-05-04 12:13 | 43.45713 | 7.17240 | 5623 ft | 221 kts | 327° |
| 2026-05-04 12:14 | 43.55230 | 7.15471 | 2214 ft | 172 kts | 4° |
| 2026-05-04 12:15 | 43.56388 | 7.15355 | 1965 ft | 161 kts | 3° |
| 2026-05-04 12:15 | 43.57452 | 7.15252 | 1834 ft | 144 kts | 4° |
| 2026-05-04 12:15 | 43.58410 | 7.15127 | 1691 ft | 138 kts | 2° |
| 2026-05-04 12:15 | 43.59411 | 7.14970 | 1386 ft | 146 kts | 1° |
| 2026-05-04 12:16 | 43.60413 | 7.14821 | 1145 ft | 143 kts | 8° |
| 2026-05-04 12:16 | 43.61330 | 7.15151 | 1080 ft | 136 kts | 38° |
| 2026-05-04 12:16 | 43.62070 | 7.15981 | 956 ft | 138 kts | 47° |
| 2026-05-04 12:16 | 43.62696 | 7.16983 | 836 ft | 139 kts | 49° |
| 2026-05-04 12:17 | 43.63382 | 7.17923 | 651 ft | 137 kts | 46° |
| 2026-05-04 12:17 | 43.64051 | 7.18846 | 438 ft | 134 kts | 48° |
| 2026-05-04 12:17 | 43.64691 | 7.19727 | 224 ft | 126 kts | 50° |
| 2026-05-04 12:17 | 43.65300 | 7.20567 | 46 ft | 122 kts | 50° |
| 2026-05-04 12:18 | 43.65831 | 7.21297 | 22 ft | 85 kts | 45° |
| 2026-05-04 12:18 | 43.66106 | 7.21673 | 20 ft | 19 kts | 45° |
| 2026-05-04 12:18 | 43.66197 | 7.21756 | 21 ft | 16 kts | 1° |
| 2026-05-04 12:18 | 43.66278 | 7.21662 | 21 ft | 14 kts | 303° |
| 2026-05-04 12:19 | 43.66246 | 7.21547 | 21 ft | 17 kts | 225° |
| 2026-05-04 12:19 | 43.66140 | 7.21401 | 21 ft | 22 kts | 225° |
| 2026-05-04 12:19 | 43.66034 | 7.21257 | 21 ft | 21 kts | 225° |
| 2026-05-04 12:19 | 43.65936 | 7.21123 | 21 ft | 19 kts | 225° |
| 2026-05-04 12:20 | 43.65849 | 7.21003 | 21 ft | 15 kts | 225° |
| 2026-05-04 12:20 | 43.65796 | 7.20908 | 21 ft | 10 kts | 265° |
| 2026-05-04 12:20 | 43.65841 | 7.20854 | 21 ft | 9 kts | 345° |
| 2026-05-04 12:20 | 43.65896 | 7.20842 | 22 ft | 7 kts | 351° |
| 2026-05-04 12:21 | 43.65938 | 7.20822 | 22 ft | 6 kts | 317° |
| 2026-05-04 12:21 | 43.65949 | 7.20777 | 21 ft | 5 kts | 282° |
| 2026-05-04 12:21 | 43.65955 | 7.20735 | 21 ft | 2 kts | 281° |
| 2026-05-04 12:21 | 43.65956 | 7.20726 | 21 ft | 0 kts | 281° |